Time;durP1;ratioP1;P1;durP2;ratioP2;P2;SDS_P1;SDS_P2;PMS_P1;PMS_P2;Temp;Humidity;BMP_temperature;BMP_pressure;BME280_temperature;BME280_humidity;BME280_pressure;Samples;Min_cycle;Max_cycle;Signal;HPM_P1;HPM_P2
2023/03/08 00:01:41;;;;;;;4.90;1.23;;;;;;;5.53;68.58;98825.72;12906591;23;20015;-60
2023/03/08 00:06:42;;;;;;;2.28;1.13;;;;;;;5.46;69.03;98835.41;12900810;23;20032;-60
2023/03/08 00:11:43;;;;;;;3.58;1.85;;;;;;;5.34;69.35;98827.03;12902987;22;20024;-60
2023/03/08 00:16:45;;;;;;;2.90;1.42;;;;;;;5.43;69.59;98837.63;12900797;23;20016;-60
2023/03/08 00:21:46;;;;;;;2.08;1.00;;;;;;;5.50;68.69;98836.72;12901375;23;20209;-60
2023/03/08 00:26:48;;;;;;;5.13;1.83;;;;;;;5.53;68.80;98835.53;12901581;23;20106;-59
2023/03/08 00:31:49;;;;;;;2.55;1.30;;;;;;;5.49;69.37;98834.22;12900806;23;20020;-60
2023/03/08 00:36:51;;;;;;;2.60;1.15;;;;;;;5.56;68.82;98829.84;12900297;23;20024;-60
2023/03/08 00:41:52;;;;;;;3.05;1.83;;;;;;;5.53;69.16;98847.03;12902260;23;20019;-59
2023/03/08 00:46:54;;;;;;;3.58;1.30;;;;;;;5.55;69.05;98842.34;12899328;23;20134;-59
2023/03/08 00:51:55;;;;;;;3.63;1.20;;;;;;;5.50;69.14;98847.38;12902059;23;20031;-59
2023/03/08 00:56:56;;;;;;;2.10;1.17;;;;;;;5.56;68.96;98845.81;12903112;23;20373;-60
2023/03/08 01:01:59;;;;;;;2.40;1.25;;;;;;;5.50;69.28;98836.72;12877642;23;20119;-60
2023/03/08 01:07:01;;;;;;;3.33;1.27;;;;;;;5.54;69.22;98831.84;12900141;23;20341;-60
2023/03/08 01:12:02;;;;;;;2.47;1.40;;;;;;;5.56;69.29;98825.31;12901489;22;20023;-60
2023/03/08 01:17:04;;;;;;;1.95;1.38;;;;;;;5.52;68.85;98817.88;12900434;23;20024;-62
2023/03/08 01:22:05;;;;;;;4.47;1.77;;;;;;;5.53;69.30;98823.03;12900760;23;20352;-60
2023/03/08 01:27:06;;;;;;;2.78;1.55;;;;;;;5.55;68.92;98823.69;12899947;23;20345;-61
2023/03/08 01:32:09;;;;;;;3.42;1.90;;;;;;;5.66;68.86;98809.06;12873702;23;20349;-60
2023/03/08 01:37:10;;;;;;;21.50;10.45;;;;;;;5.75;68.29;98802.66;12897691;23;20032;-60
2023/03/08 01:42:12;;;;;;;22.10;9.88;;;;;;;5.85;68.09;98788.22;12899912;23;20086;-60
2023/03/08 01:47:19;;;;;;;3.55;2.25;;;;;;;5.80;68.53;98785.28;12901022;23;20020;-63
2023/03/08 01:52:35;;;;;;;2.27;1.40;;;;;;;5.85;67.50;98789.06;12903250;23;20024;-63
2023/03/08 01:57:48;;;;;;;3.53;1.90;;;;;;;5.92;68.56;98776.66;12904347;23;20457;-63
2023/03/08 02:02:51;;;;;;;4.90;2.40;;;;;;;5.96;67.74;98771.78;12907006;23;20027;-64
2023/03/08 02:07:53;;;;;;;3.90;2.17;;;;;;;6.04;68.38;98768.19;12907552;23;20024;-63
2023/03/08 02:12:54;;;;;;;3.53;2.17;;;;;;;6.08;67.94;98769.47;12906586;22;20062;-64
2023/03/08 02:17:56;;;;;;;4.22;2.78;;;;;;;6.13;68.71;98764.41;12905296;23;20024;-63
2023/03/08 02:23:17;;;;;;;4.15;2.63;;;;;;;5.98;68.17;98750.25;12904827;23;20023;-63
2023/03/08 02:28:24;;;;;;;6.53;2.20;;;;;;;5.97;68.75;98752.09;12905531;23;20032;-63
2023/03/08 02:33:25;;;;;;;3.92;2.60;;;;;;;6.00;68.51;98735.72;12907861;23;20028;-63
2023/03/08 02:38:26;;;;;;;5.45;2.67;;;;;;;5.85;68.37;98733.06;12878862;23;20019;-63
2023/03/08 02:43:28;;;;;;;5.45;2.95;;;;;;;5.91;68.61;98728.81;12905811;23;20277;-63
2023/03/08 02:48:29;;;;;;;5.90;3.10;;;;;;;5.91;68.95;98720.81;12906022;23;20428;-64
2023/03/08 02:53:31;;;;;;;5.50;3.20;;;;;;;5.87;68.67;98719.53;12905374;23;20052;-63
2023/03/08 02:58:32;;;;;;;5.22;2.90;;;;;;;5.88;68.33;98716.66;12903938;23;20047;-64
2023/03/08 03:03:33;;;;;;;5.53;2.92;;;;;;;5.81;68.79;98702.44;12905514;23;20024;-63
2023/03/08 03:08:35;;;;;;;9.13;4.05;;;;;;;5.92;68.47;98701.13;12903500;23;20028;-63
2023/03/08 03:13:36;;;;;;;6.90;3.60;;;;;;;5.96;68.71;98699.78;12908461;22;20023;-64
2023/03/08 03:18:38;;;;;;;5.43;3.45;;;;;;;5.99;68.74;98706.59;12904155;23;20456;-63
2023/03/08 03:23:40;;;;;;;8.00;3.70;;;;;;;6.05;69.10;98693.31;12905091;23;20075;-63
2023/03/08 03:28:42;;;;;;;7.00;4.22;;;;;;;6.08;68.71;98692.09;12903404;23;20086;-64
2023/03/08 03:33:43;;;;;;;7.70;4.38;;;;;;;6.11;68.60;98692.56;12904315;23;20035;-63
2023/03/08 03:38:46;;;;;;;7.55;4.43;;;;;;;6.13;68.92;98693.19;12903876;23;20094;-63
2023/03/08 03:43:48;;;;;;;6.50;4.07;;;;;;;6.15;69.14;98680.50;12905179;23;20024;-64
2023/03/08 03:48:50;;;;;;;7.07;3.50;;;;;;;6.17;68.98;98692.84;12903168;23;20058;-64
2023/03/08 03:53:51;;;;;;;7.20;4.43;;;;;;;6.13;68.96;98685.19;12905525;23;20055;-63
2023/03/08 03:58:53;;;;;;;7.47;4.22;;;;;;;6.11;69.10;98686.41;12902973;23;20390;-63
2023/03/08 04:03:55;;;;;;;9.30;4.72;;;;;;;6.06;69.39;98684.31;12903281;23;20035;-64
2023/03/08 04:08:59;;;;;;;10.70;4.90;;;;;;;6.03;69.57;98675.84;12903882;22;20047;-63
2023/03/08 04:14:01;;;;;;;10.35;4.72;;;;;;;6.03;69.16;98674.00;12903776;23;20024;-64
2023/03/08 04:19:10;;;;;;;11.45;4.93;;;;;;;6.00;69.33;98670.88;12904060;23;20432;-63
2023/03/08 04:24:11;;;;;;;9.65;4.72;;;;;;;5.97;69.48;98660.63;12904624;23;20020;-63
2023/03/08 04:29:12;;;;;;;10.68;5.30;;;;;;;5.90;69.58;98658.63;12903673;23;20082;-62
2023/03/08 04:34:14;;;;;;;12.18;5.70;;;;;;;5.91;69.65;98662.16;12905191;23;20016;-63
2023/03/08 04:39:15;;;;;;;10.93;5.57;;;;;;;5.88;69.72;98662.50;12907667;23;20035;-63
2023/03/08 04:44:16;;;;;;;15.05;6.60;;;;;;;5.74;69.91;98656.19;12904743;23;20359;-63
2023/03/08 04:49:18;;;;;;;13.07;6.10;;;;;;;5.55;70.38;98649.63;12903973;23;20028;-63
2023/03/08 04:54:19;;;;;;;14.88;6.43;;;;;;;5.44;70.92;98637.59;12904217;23;20130;-63
2023/03/08 04:59:21;;;;;;;15.80;6.78;;;;;;;5.39;71.27;98634.69;12901754;23;20020;-64
2023/03/08 05:04:22;;;;;;;14.32;6.57;;;;;;;5.43;70.72;98633.28;12903141;23;20008;-63
2023/03/08 05:09:23;;;;;;;15.65;6.85;;;;;;;5.24;71.41;98613.34;12903154;22;20464;-62
2023/03/08 05:14:25;;;;;;;12.68;6.53;;;;;;;5.16;70.61;98611.63;12902660;23;20019;-63
2023/03/08 05:19:26;;;;;;;15.23;7.10;;;;;;;5.18;71.15;98607.94;12903697;23;20019;-63
2023/03/08 05:24:27;;;;;;;16.73;7.78;;;;;;;5.17;71.66;98599.13;12904212;23;20457;-62
2023/03/08 05:29:29;;;;;;;15.45;7.03;;;;;;;5.22;71.52;98593.25;12907271;23;20028;-63
2023/03/08 05:34:30;;;;;;;23.30;7.85;;;;;;;5.29;71.22;98595.00;12906161;23;20119;-62
2023/03/08 05:39:32;;;;;;;19.58;7.43;;;;;;;5.31;71.05;98586.78;12906289;23;20028;-63
2023/03/08 05:44:34;;;;;;;13.98;6.65;;;;;;;5.23;71.11;98577.06;12905977;23;20023;-62
2023/03/08 05:49:36;;;;;;;17.35;7.35;;;;;;;5.24;71.27;98568.06;12902723;23;20445;-63
2023/03/08 05:54:38;;;;;;;18.60;7.43;;;;;;;5.30;70.71;98566.50;12904617;23;20059;-65
2023/03/08 05:59:39;;;;;;;17.15;7.43;;;;;;;5.26;71.73;98558.06;12901035;23;20086;-65
2023/03/08 06:04:41;;;;;;;22.08;8.70;;;;;;;5.31;71.39;98555.69;12901814;23;20005;-65
2023/03/08 06:09:42;;;;;;;26.20;7.95;;;;;;;5.38;71.62;98557.59;12899495;22;20728;-65
2023/03/08 06:14:43;;;;;;;19.02;8.07;;;;;;;5.30;72.03;98574.50;12902229;23;20020;-65
2023/03/08 06:19:45;;;;;;;20.90;8.93;;;;;;;5.04;72.12;98570.47;12900099;23;20027;-66
2023/03/08 06:24:49;;;;;;;19.50;9.38;;;;;;;5.05;72.41;98568.63;12900449;23;20027;-66
2023/03/08 06:29:51;;;;;;;22.27;10.40;;;;;;;4.88;72.77;98558.19;12903469;23;20024;-66
2023/03/08 06:34:52;;;;;;;23.52;10.50;;;;;;;4.85;72.87;98560.38;12903713;23;20012;-66
2023/03/08 06:39:53;;;;;;;25.25;10.70;;;;;;;4.81;72.96;98556.44;12903121;23;20028;-67
2023/03/08 06:44:55;;;;;;;24.50;10.40;;;;;;;4.76;73.14;98554.34;12902210;23;20500;-65
2023/03/08 06:49:56;;;;;;;21.60;9.63;;;;;;;4.74;73.14;98546.53;12899219;23;20508;-64
2023/03/08 06:54:57;;;;;;;25.58;10.88;;;;;;;4.78;73.18;98536.34;12901637;23;20039;-66
2023/03/08 06:59:59;;;;;;;24.92;10.98;;;;;;;4.90;72.90;98523.41;12901465;23;20028;-67
2023/03/08 07:05:00;;;;;;;21.73;9.98;;;;;;;4.86;72.82;98520.28;12904917;23;20028;-67
2023/03/08 07:10:02;;;;;;;25.20;10.63;;;;;;;4.83;73.17;98514.50;12901320;22;20026;-66
2023/03/08 07:15:13;;;;;;;23.02;10.30;;;;;;;4.84;73.22;98514.31;12904591;23;20047;-68
2023/03/08 07:20:17;;;;;;;23.77;10.07;;;;;;;4.73;73.49;98502.28;12905271;23;20058;-67
2023/03/08 07:25:20;;;;;;;23.98;10.25;;;;;;;4.69;73.82;98487.69;12902784;23;20079;-67
2023/03/08 07:30:22;;;;;;;24.10;11.05;;;;;;;4.66;73.93;98479.25;12903000;23;20025;-68
2023/03/08 07:35:23;;;;;;;18.08;10.40;;;;;;;4.73;73.35;98472.19;12902669;23;20012;-66
2023/03/08 07:40:24;;;;;;;24.73;9.38;;;;;;;4.81;73.52;98466.75;12901790;23;20016;-65
2023/03/08 07:45:26;;;;;;;19.45;8.80;;;;;;;4.84;73.38;98450.44;12875943;23;20453;-66
2023/03/08 07:50:27;;;;;;;23.73;10.13;;;;;;;4.79;73.71;98438.69;12902737;23;20019;-66
2023/03/08 07:55:29;;;;;;;24.27;9.95;;;;;;;4.72;74.04;98430.59;12901983;23;20416;-66
2023/03/08 08:00:30;;;;;;;24.40;9.60;;;;;;;4.77;74.06;98417.56;12901022;23;20024;-66
2023/03/08 08:05:34;;;;;;;22.48;9.95;;;;;;;4.73;74.16;98403.81;12901315;23;20484;-65
2023/03/08 08:10:35;;;;;;;25.60;11.85;;;;;;;4.81;74.03;98410.03;12899296;22;20510;-66
2023/03/08 08:15:37;;;;;;;19.83;8.07;;;;;;;4.83;74.25;98392.88;12907410;23;20517;-67
2023/03/08 08:20:38;;;;;;;21.88;9.68;;;;;;;4.83;73.91;98382.22;12876283;23;20035;-67
2023/03/08 08:25:39;;;;;;;23.70;9.82;;;;;;;4.78;74.20;98366.00;12902059;23;20098;-67
2023/03/08 08:30:41;;;;;;;20.02;9.70;;;;;;;4.82;73.86;98358.44;12900089;23;20531;-65
2023/03/08 08:35:42;;;;;;;23.05;10.30;;;;;;;4.64;74.47;98361.53;12900970;23;20464;-64
2023/03/08 08:40:44;;;;;;;20.63;9.10;;;;;;;4.63;74.92;98355.38;12903425;23;20020;-67
2023/03/08 08:45:47;;;;;;;25.45;11.07;;;;;;;4.70;74.14;98344.81;12899667;23;20024;-67
2023/03/08 08:50:50;;;;;;;22.58;10.05;;;;;;;4.49;74.30;98348.25;12849623;23;20032;-68
2023/03/08 08:55:51;;;;;;;17.95;9.38;;;;;;;4.41;74.19;98340.41;12875400;23;20027;-66
2023/03/08 09:00:53;;;;;;;18.98;9.88;;;;;;;4.30;74.10;98325.72;12899109;23;20518;-67
2023/03/08 09:05:56;;;;;;;25.65;9.85;;;;;;;4.19;74.06;98311.09;12901602;23;20016;-69
2023/03/08 09:11:03;;;;;;;22.98;10.27;;;;;;;4.21;73.48;98293.09;12871067;22;20024;-68
2023/03/08 09:16:05;;;;;;;19.48;10.57;;;;;;;4.21;73.54;98286.97;12899707;23;20016;-68
2023/03/08 09:21:06;;;;;;;24.35;11.00;;;;;;;4.09;73.94;98290.09;12900374;23;20031;-69
2023/03/08 09:26:08;;;;;;;24.20;10.80;;;;;;;4.17;73.79;98283.84;12899305;23;20027;-70
2023/03/08 09:31:13;;;;;;;22.25;11.05;;;;;;;4.12;73.92;98284.38;12901590;23;20531;-67
2023/03/08 09:36:15;;;;;;;22.85;11.23;;;;;;;4.24;73.99;98278.59;12899850;23;20020;-65
2023/03/08 09:41:29;;;;;;;23.50;10.65;;;;;;;4.29;74.15;98279.69;12872553;23;20020;-64
2023/03/08 09:46:45;;;;;;;24.95;10.65;;;;;;;4.28;73.82;98271.91;12897763;23;20527;-64
2023/03/08 09:51:51;;;;;;;18.08;9.15;;;;;;;4.13;74.57;98264.78;12933656;22;20016;-65
2023/03/08 09:56:55;;;;;;;22.10;10.52;;;;;;;4.14;74.14;98271.72;12950730;23;20021;-65
2023/03/08 10:02:13;;;;;;;20.38;8.80;;;;;;;4.07;74.19;98264.69;12928405;22;20028;-65
2023/03/08 10:07:44;;;;;;;22.38;9.10;;;;;;;3.96;74.73;98269.47;12939924;23;20013;-63
2023/03/08 10:13:02;;;;;;;21.02;9.90;;;;;;;4.01;74.17;98244.16;12921228;22;20027;-64
2023/03/08 10:18:23;;;;;;;22.55;9.98;;;;;;;4.07;74.50;98230.13;12909291;23;20024;-64
2023/03/08 10:23:28;;;;;;;16.92;8.68;;;;;;;4.17;74.37;98214.72;12929471;23;20016;-65
2023/03/08 10:28:29;;;;;;;20.08;10.15;;;;;;;4.24;74.40;98209.47;12926464;23;20027;-64
2023/03/08 10:33:34;;;;;;;18.17;10.00;;;;;;;4.25;74.26;98205.81;12936832;23;20023;-68
2023/03/08 10:38:36;;;;;;;23.50;10.45;;;;;;;4.30;74.71;98206.03;12919569;23;20074;-64
2023/03/08 10:43:45;;;;;;;25.27;10.88;;;;;;;4.40;74.60;98195.91;12915582;23;20020;-65
2023/03/08 10:48:47;;;;;;;22.13;10.63;;;;;;;4.51;74.56;98181.31;12914475;23;20036;-66
2023/03/08 10:54:01;;;;;;;22.52;10.63;;;;;;;4.55;74.85;98183.38;12906990;23;20059;-66
2023/03/08 10:59:05;;;;;;;23.60;11.23;;;;;;;4.58;75.05;98160.88;12910320;23;20030;-64
2023/03/08 11:04:20;;;;;;;25.80;11.43;;;;;;;4.62;75.03;98150.69;12883589;23;20403;-64
2023/03/08 11:09:30;;;;;;;25.15;11.93;;;;;;;4.60;74.87;98150.06;12918466;22;20031;-66
2023/03/08 11:14:31;;;;;;;28.70;12.98;;;;;;;4.63;75.25;98139.03;12925312;23;20050;-64
2023/03/08 11:19:48;;;;;;;27.38;13.82;;;;;;;4.60;75.37;98144.72;12911288;23;20020;-64
2023/03/08 11:25:18;;;;;;;28.13;13.98;;;;;;;4.32;75.13;98150.84;12910827;23;20024;-64
2023/03/08 11:31:04;;;;;;;26.25;13.32;;;;;;;4.12;74.84;98147.97;12934230;23;20149;-66
2023/03/08 11:36:31;;;;;;;29.23;13.90;;;;;;;4.04;74.75;98140.94;12916775;23;20027;-66
2023/03/08 11:41:50;;;;;;;27.98;13.95;;;;;;;3.98;74.88;98131.91;12909121;23;20050;-66
2023/03/08 11:47:25;;;;;;;28.70;14.45;;;;;;;4.01;74.39;98127.22;12904489;23;20024;-66
2023/03/08 11:52:43;;;;;;;29.70;13.80;;;;;;;4.03;74.75;98122.53;12883217;23;20028;-65
2023/03/08 11:57:53;;;;;;;31.55;13.40;;;;;;;4.09;74.36;98111.97;12878606;23;20016;-63
2023/03/08 12:03:02;;;;;;;27.77;13.93;;;;;;;4.22;74.91;98099.81;12908258;23;20082;-61
2023/03/08 12:08:12;;;;;;;27.25;13.43;;;;;;;4.33;74.82;98093.97;12907389;23;20024;-62
2023/03/08 12:13:21;;;;;;;21.58;11.27;;;;;;;4.16;74.82;98096.06;12915609;22;20082;-62
2023/03/08 12:18:37;;;;;;;22.05;11.77;;;;;;;4.03;75.09;98085.31;12910111;23;20035;-65
2023/03/08 12:24:04;;;;;;;21.95;10.40;;;;;;;3.99;74.60;98095.53;12905365;23;20492;-63
2023/03/08 12:29:17;;;;;;;30.67;13.15;;;;;;;4.09;74.59;98077.41;12880375;23;20028;-64
2023/03/08 12:34:37;;;;;;;29.20;13.90;;;;;;;4.25;74.53;98065.69;12908214;23;20336;-63
2023/03/08 12:39:39;;;;;;;24.25;14.35;;;;;;;4.40;74.42;98076.22;12904535;23;20074;-61
2023/03/08 12:44:41;;;;;;;28.17;13.50;;;;;;;4.45;74.41;98070.34;12905714;23;20024;-62
2023/03/08 12:49:48;;;;;;;25.80;12.50;;;;;;;4.26;75.70;98055.88;12909662;23;20026;-62
2023/03/08 12:55:18;;;;;;;27.75;13.77;;;;;;;4.25;75.79;98056.91;12908515;23;20763;-64
2023/03/08 13:00:19;;;;;;;32.50;14.65;;;;;;;4.28;75.81;98043.19;12918861;23;20020;-65
2023/03/08 13:05:32;;;;;;;31.95;14.95;;;;;;;4.47;75.71;98053.16;12915797;23;20085;-64
2023/03/08 13:10:37;;;;;;;34.88;15.85;;;;;;;4.46;76.41;98048.84;12915247;22;20054;-64
2023/03/08 13:15:39;;;;;;;34.72;14.35;;;;;;;4.61;76.37;98051.41;12918222;23;20027;-64
2023/03/08 13:20:58;;;;;;;28.10;13.98;;;;;;;4.72;76.30;98048.22;12910915;23;20082;-63
2023/03/08 13:26:05;;;;;;;26.08;13.45;;;;;;;4.84;76.20;98050.31;12907948;23;20016;-63
2023/03/08 13:31:09;;;;;;;28.23;13.07;;;;;;;4.76;76.54;98041.50;12909314;23;20020;-63
2023/03/08 13:36:31;;;;;;;29.55;14.55;;;;;;;4.87;76.29;98029.47;12916585;23;20020;-64
2023/03/08 13:41:42;;;;;;;28.95;13.70;;;;;;;4.93;76.59;98025.19;12917176;23;20024;-63
2023/03/08 13:46:45;;;;;;;23.02;11.30;;;;;;;4.87;76.58;98033.97;12928778;23;20031;-64
2023/03/08 13:51:50;;;;;;;20.92;11.27;;;;;;;4.74;77.00;98042.72;12929215;23;20074;-63
2023/03/08 13:56:53;;;;;;;22.23;11.70;;;;;;;4.75;76.76;98039.84;12931680;23;20083;-63
2023/03/08 14:01:55;;;;;;;22.02;10.00;;;;;;;4.64;77.06;98031.56;12931064;23;20090;-63
2023/03/08 14:06:58;;;;;;;24.27;13.05;;;;;;;4.61;77.11;98027.47;12933630;23;20046;-64
2023/03/08 14:12:03;;;;;;;21.40;11.10;;;;;;;4.67;77.03;98029.34;12919192;22;20032;-62
2023/03/08 14:17:05;;;;;;;23.02;10.75;;;;;;;4.64;77.20;98029.75;12917716;23;20031;-60
2023/03/08 14:22:16;;;;;;;22.88;11.68;;;;;;;4.61;77.10;98019.50;12926546;23;20030;-62
2023/03/08 14:27:39;;;;;;;19.67;10.48;;;;;;;4.68;76.74;98016.84;12928034;23;20024;-61
2023/03/08 14:32:55;;;;;;;19.02;10.38;;;;;;;4.79;76.89;98016.31;12926264;23;20028;-62
2023/03/08 14:37:57;;;;;;;20.35;9.45;;;;;;;4.69;77.43;98003.38;12923264;23;20024;-61
2023/03/08 14:43:03;;;;;;;23.13;11.27;;;;;;;4.86;76.77;97989.72;12923720;23;20032;-62
2023/03/08 14:48:17;;;;;;;21.48;10.35;;;;;;;4.99;76.61;97981.00;12917397;23;20028;-60
2023/03/08 14:53:27;;;;;;;20.20;11.48;;;;;;;5.21;76.63;97955.03;12915691;23;20028;-60
2023/03/08 14:58:31;;;;;;;19.70;9.90;;;;;;;5.16;77.02;97947.66;12912623;23;20016;-60
2023/03/08 15:03:33;;;;;;;24.35;10.63;;;;;;;5.22;76.70;97938.06;12924238;23;20024;-63
2023/03/08 15:08:35;;;;;;;21.75;11.52;;;;;;;5.16;76.41;97934.34;12915530;23;20024;-64
2023/03/08 15:13:36;;;;;;;22.90;11.90;;;;;;;5.21;76.91;97912.44;12935872;22;20020;-65
2023/03/08 15:18:37;;;;;;;27.23;12.82;;;;;;;5.22;76.28;97912.25;12939414;23;20598;-64
2023/03/08 15:23:41;;;;;;;21.55;10.45;;;;;;;5.08;77.05;97916.72;12938604;23;20024;-64
2023/03/08 15:28:43;;;;;;;23.33;12.38;;;;;;;4.92;77.91;97911.75;12908287;23;20024;-64
2023/03/08 15:33:44;;;;;;;21.90;10.88;;;;;;;5.22;76.58;97904.25;12930400;23;20020;-62
2023/03/08 15:38:45;;;;;;;23.25;11.00;;;;;;;5.12;77.50;97907.31;12935842;23;20031;-61
2023/03/08 15:43:47;;;;;;;23.88;10.30;;;;;;;5.16;77.37;97907.72;12930481;23;20020;-64
2023/03/08 15:48:50;;;;;;;28.38;10.20;;;;;;;5.22;77.05;97893.59;12925107;23;20032;-61
2023/03/08 15:53:51;;;;;;;27.88;11.10;;;;;;;5.28;77.05;97895.44;12923990;23;20612;-63
2023/03/08 15:58:54;;;;;;;29.92;12.70;;;;;;;5.30;77.34;97898.72;12929789;23;20045;-64
2023/03/08 16:03:56;;;;;;;33.45;13.60;;;;;;;5.38;77.04;97911.03;12922900;23;20086;-60
2023/03/08 16:08:58;;;;;;;32.38;11.70;;;;;;;5.59;76.84;97917.19;12925199;22;20074;-60
2023/03/08 16:13:59;;;;;;;29.85;12.48;;;;;;;5.80;76.56;97905.50;12914017;23;20016;-62
2023/03/08 16:19:01;;;;;;;30.95;12.35;;;;;;;5.92;75.82;97903.84;12888502;23;20020;-62
2023/03/08 16:24:03;;;;;;;29.65;13.48;;;;;;;5.97;76.62;97884.63;12919101;23;20078;-63
2023/03/08 16:29:04;;;;;;;33.42;14.18;;;;;;;6.01;76.25;97872.50;12900152;23;20020;-61
2023/03/08 16:34:06;;;;;;;31.23;14.43;;;;;;;6.14;75.78;97867.13;12906633;23;20020;-63
2023/03/08 16:39:08;;;;;;;33.78;13.85;;;;;;;6.21;76.04;97875.94;12928207;23;20123;-63
2023/03/08 16:44:20;;;;;;;34.35;14.15;;;;;;;6.28;76.10;97881.25;12931155;23;20452;-63
2023/03/08 16:49:26;;;;;;;32.55;13.95;;;;;;;6.30;75.94;97896.03;12898146;23;20026;-63
2023/03/08 16:54:28;;;;;;;30.17;12.67;;;;;;;6.37;75.57;97881.84;12923457;23;20024;-63
2023/03/08 16:59:30;;;;;;;33.95;14.68;;;;;;;6.32;75.66;97901.19;12923298;23;20024;-64
2023/03/08 17:04:31;;;;;;;33.08;13.88;;;;;;;6.33;76.08;97913.47;12895595;23;21178;-65
2023/03/08 17:09:34;;;;;;;35.10;13.45;;;;;;;6.03;76.71;97926.47;12905414;22;20028;-67
2023/03/08 17:14:36;;;;;;;29.38;13.80;;;;;;;5.87;77.89;97936.47;12908041;23;20111;-61
2023/03/08 17:19:37;;;;;;;31.52;13.80;;;;;;;6.12;77.27;97926.03;12919158;23;20017;-60
2023/03/08 17:24:41;;;;;;;35.38;15.65;;;;;;;6.27;76.83;97919.66;12920676;23;20453;-60
2023/03/08 17:29:42;;;;;;;37.92;16.02;;;;;;;6.30;76.15;97914.72;12873145;23;20028;-61
2023/03/08 17:34:44;;;;;;;39.15;16.17;;;;;;;6.40;76.56;97903.59;12848958;23;20079;-60
2023/03/08 17:39:45;;;;;;;43.17;18.63;;;;;;;6.46;76.62;97901.97;12849453;23;20082;-59
2023/03/08 17:44:47;;;;;;;40.78;17.60;;;;;;;6.52;76.68;97903.78;12885635;23;20025;-61
2023/03/08 17:49:48;;;;;;;36.70;14.65;;;;;;;6.41;76.85;97913.25;12844972;23;20020;-60
2023/03/08 17:54:49;;;;;;;36.10;16.33;;;;;;;6.50;76.44;97905.84;12849823;23;20032;-60
2023/03/08 17:59:52;;;;;;;31.92;15.25;;;;;;;6.59;76.36;97901.88;12854385;23;20086;-62
2023/03/08 18:04:54;;;;;;;37.03;16.80;;;;;;;6.62;76.23;97872.13;12886173;23;20024;-61
2023/03/08 18:09:56;;;;;;;32.08;15.48;;;;;;;6.57;76.79;97892.47;12863960;23;20033;-61
2023/03/08 18:15:00;;;;;;;34.08;15.55;;;;;;;6.54;76.67;97910.53;12870636;23;20032;-60
2023/03/08 18:20:04;;;;;;;43.47;16.52;;;;;;;6.37;77.44;97889.88;12855175;23;20020;-61
2023/03/08 18:25:05;;;;;;;35.97;15.80;;;;;;;6.50;76.90;97903.19;12853682;23;20035;-62
2023/03/08 18:30:08;;;;;;;43.22;16.77;;;;;;;6.64;76.56;97895.94;12808250;23;20544;-61
2023/03/08 18:35:12;;;;;;;37.65;16.02;;;;;;;6.62;76.43;97906.00;12795545;23;20017;-60
2023/03/08 18:40:13;;;;;;;35.17;15.98;;;;;;;6.70;76.11;97919.13;12769772;23;20017;-61
2023/03/08 18:45:17;;;;;;;34.22;15.65;;;;;;;6.70;76.26;97925.25;12794269;23;20108;-61
2023/03/08 18:50:18;;;;;;;32.65;15.98;;;;;;;6.74;76.42;97915.00;12796214;23;20058;-60
2023/03/08 18:55:20;;;;;;;37.70;18.05;;;;;;;6.71;76.31;97912.72;12796253;23;20020;-61
2023/03/08 19:00:21;;;;;;;38.42;18.38;;;;;;;6.62;76.54;97927.34;12793775;23;20025;-62
2023/03/08 19:05:23;;;;;;;41.83;20.08;;;;;;;6.53;77.56;97942.78;12794181;23;20025;-62
2023/03/08 19:10:24;;;;;;;43.85;20.60;;;;;;;6.54;77.38;97939.91;12781585;23;20052;-61
2023/03/08 19:15:26;;;;;;;42.40;17.75;;;;;;;6.71;77.30;97936.75;12785556;23;20032;-61
2023/03/08 19:20:28;;;;;;;44.17;20.08;;;;;;;6.69;77.11;97936.97;12782640;23;20028;-62
2023/03/08 19:25:34;;;;;;;47.60;21.15;;;;;;;6.72;77.29;97927.72;12782773;23;20017;-62
2023/03/08 19:30:35;;;;;;;47.15;21.50;;;;;;;6.89;76.44;97917.38;12861206;23;20406;-61
2023/03/08 19:35:37;;;;;;;56.05;23.38;;;;;;;6.99;76.21;97916.91;12909960;23;20452;-61
2023/03/08 19:40:42;;;;;;;54.92;23.60;;;;;;;7.05;76.98;97924.06;12899684;23;20511;-62
2023/03/08 19:45:47;;;;;;;44.63;20.88;;;;;;;6.95;76.76;97914.69;12899321;23;20619;-62
2023/03/08 19:50:49;;;;;;;57.70;24.35;;;;;;;7.06;76.72;97907.03;12901362;23;20020;-62
2023/03/08 19:55:52;;;;;;;49.55;23.90;;;;;;;7.00;77.21;97905.22;12902085;23;20020;-59
2023/03/08 20:01:01;;;;;;;49.63;20.60;;;;;;;6.95;77.62;97906.69;12900408;23;20031;-60
2023/03/08 20:06:03;;;;;;;42.25;18.73;;;;;;;7.04;77.08;97901.09;12898869;23;20024;-60
2023/03/08 20:11:05;;;;;;;51.03;20.25;;;;;;;7.04;77.16;97896.56;12897275;22;20364;-60
2023/03/08 20:16:06;;;;;;;57.13;23.60;;;;;;;7.14;77.08;97906.78;12897678;23;20019;-60
2023/03/08 20:21:08;;;;;;;46.95;21.90;;;;;;;7.24;77.50;97920.47;12899976;23;20035;-60
2023/03/08 20:26:10;;;;;;;46.60;20.95;;;;;;;7.38;77.13;97915.06;12898320;23;20040;-60
2023/03/08 20:31:12;;;;;;;42.90;19.83;;;;;;;7.40;77.10;97916.47;12904724;23;20020;-60
2023/03/08 20:36:14;;;;;;;48.75;21.90;;;;;;;7.51;76.71;97920.31;12899842;23;20035;-61
2023/03/08 20:41:18;;;;;;;45.10;20.15;;;;;;;7.55;76.37;97922.34;12900076;23;20074;-61
2023/03/08 20:46:22;;;;;;;41.15;19.52;;;;;;;7.62;76.60;97921.47;12896802;23;20020;-61
2023/03/08 20:51:24;;;;;;;44.15;20.83;;;;;;;7.63;77.23;97915.91;12900034;23;20107;-61
2023/03/08 20:56:26;;;;;;;41.00;19.38;;;;;;;7.67;76.64;97927.00;12894844;23;20102;-60
2023/03/08 21:01:30;;;;;;;43.40;20.73;;;;;;;7.69;77.12;97925.72;12902383;23;20047;-61
2023/03/08 21:06:31;;;;;;;51.47;21.25;;;;;;;7.66;76.78;97923.50;12901219;23;20032;-59
2023/03/08 21:11:33;;;;;;;47.03;20.35;;;;;;;7.72;77.50;97909.25;12904117;22;20082;-60
2023/03/08 21:16:35;;;;;;;39.10;18.10;;;;;;;7.81;77.43;97898.28;12901321;23;20098;-61
2023/03/08 21:21:39;;;;;;;39.38;19.40;;;;;;;7.79;77.38;97905.72;12901171;23;20028;-60
2023/03/08 21:26:41;;;;;;;45.10;21.23;;;;;;;7.81;76.79;97890.28;12898645;23;20024;-60
2023/03/08 21:31:47;;;;;;;50.10;19.50;;;;;;;7.83;77.71;97889.00;12902729;23;20024;-60
2023/03/08 21:36:48;;;;;;;39.83;17.77;;;;;;;7.86;77.71;97880.56;12898726;23;20509;-60
2023/03/08 21:41:51;;;;;;;46.80;17.60;;;;;;;7.91;76.85;97859.28;12900370;23;20058;-60
2023/03/08 21:46:54;;;;;;;40.78;19.33;;;;;;;7.78;77.69;97861.28;12898852;23;20090;-61
2023/03/08 21:51:57;;;;;;;43.30;18.60;;;;;;;7.86;78.12;97844.94;12900752;23;20055;-60
2023/03/08 21:56:58;;;;;;;46.90;18.77;;;;;;;7.88;77.33;97834.88;12898416;23;20649;-60
2023/03/08 22:02:00;;;;;;;52.33;18.77;;;;;;;8.01;77.52;97832.03;12901170;23;20348;-60
2023/03/08 22:07:01;;;;;;;47.42;19.35;;;;;;;8.06;77.52;97828.72;12897825;23;20026;-59
2023/03/08 22:12:03;;;;;;;49.20;19.70;;;;;;;8.10;77.67;97822.69;12903281;22;20028;-60
2023/03/08 22:17:06;;;;;;;55.63;19.77;;;;;;;8.20;77.26;97819.50;12902796;23;20048;-59
2023/03/08 22:22:09;;;;;;;45.15;20.35;;;;;;;8.30;77.47;97811.75;12904386;23;20047;-60
2023/03/08 22:27:11;;;;;;;44.92;19.25;;;;;;;8.37;77.35;97800.97;12902599;23;20620;-60
2023/03/08 22:32:14;;;;;;;49.13;19.55;;;;;;;8.39;77.37;97798.88;12875790;23;20096;-59
2023/03/08 22:37:15;;;;;;;41.13;19.00;;;;;;;8.40;77.29;97794.38;12907917;23;20038;-59
2023/03/08 22:42:17;;;;;;;52.47;19.90;;;;;;;8.34;77.27;97793.41;12877247;23;20024;-59
2023/03/08 22:47:18;;;;;;;49.40;19.38;;;;;;;8.38;77.25;97785.75;12849178;23;20043;-60
2023/03/08 22:52:20;;;;;;;46.45;19.35;;;;;;;8.41;77.74;97778.13;12876193;23;20461;-59
2023/03/08 22:57:21;;;;;;;55.33;20.73;;;;;;;8.48;77.44;97775.34;12910225;23;20230;-58
2023/03/08 23:02:23;;;;;;;48.20;22.05;;;;;;;8.54;77.43;97763.72;12903564;23;20099;-60
2023/03/08 23:07:25;;;;;;;53.30;22.10;;;;;;;8.56;77.63;97739.41;12901455;23;20023;-59
2023/03/08 23:12:26;;;;;;;41.50;19.27;;;;;;;8.60;76.98;97740.56;12903345;22;20078;-58
2023/03/08 23:17:27;;;;;;;40.72;19.80;;;;;;;8.59;77.25;97739.78;12901329;23;20013;-59
2023/03/08 23:22:29;;;;;;;54.83;24.27;;;;;;;8.56;77.17;97745.56;12902358;23;20737;-59
2023/03/08 23:27:30;;;;;;;43.95;19.58;;;;;;;8.61;77.15;97723.44;12902803;23;20537;-59